Time;durP1;ratioP1;P1;durP2;ratioP2;P2;SDS_P1;SDS_P2;PMS_P1;PMS_P2;Temp;Humidity;BMP_temperature;BMP_pressure;BME280_temperature;BME280_humidity;BME280_pressure;Samples;Min_cycle;Max_cycle;Signal;HPM_P1;HPM_P2
2021/07/30 00:01:02;;;;;;;7.92;3.98;;;;;;;29.95;46.50;101050.34;1592050;89;21029;-48
2021/07/30 00:03:29;;;;;;;7.05;4.30;;;;;;;29.96;46.45;101053.88;1572559;89;21029;-48
2021/07/30 00:05:56;;;;;;;4.85;4.12;;;;;;;29.95;46.40;101046.33;1569053;89;21058;-47
2021/07/30 00:08:22;;;;;;;6.90;3.85;;;;;;;29.94;46.14;101048.67;1563732;90;21559;-50
2021/07/30 00:10:54;;;;;;;5.55;3.80;;;;;;;29.94;46.28;101044.66;1593032;89;20986;-48
2021/07/30 00:13:21;;;;;;;8.73;4.45;;;;;;;29.93;46.62;101060.39;1592096;89;21537;-47
2021/07/30 00:15:48;;;;;;;8.83;4.62;;;;;;;29.91;46.88;101052.98;1594277;89;21026;-47
2021/07/30 00:18:14;;;;;;;6.70;4.22;;;;;;;29.90;47.11;101056.68;1596819;88;21021;-47
2021/07/30 00:20:41;;;;;;;8.45;4.37;;;;;;;29.86;47.31;101049.92;1595645;89;21062;-52
2021/07/30 00:23:07;;;;;;;8.88;4.65;;;;;;;29.87;47.36;101052.94;1598006;89;21076;-48
2021/07/30 00:25:34;;;;;;;4.80;4.20;;;;;;;29.85;47.35;101056.27;1599442;88;21041;-47
2021/07/30 00:28:02;;;;;;;4.90;4.40;;;;;;;29.84;47.72;101053.26;1576689;89;21046;-47
2021/07/30 00:30:28;;;;;;;6.17;4.35;;;;;;;29.84;48.50;101049.23;1596871;88;21108;-50
2021/07/30 00:32:55;;;;;;;7.00;4.47;;;;;;;29.85;48.85;101050.05;1596776;88;21483;-51
2021/07/30 00:35:22;;;;;;;5.78;4.12;;;;;;;29.84;49.09;101042.53;1601051;88;21011;-48
2021/07/30 00:37:49;;;;;;;4.28;3.85;;;;;;;29.85;48.92;101045.54;1617581;88;21064;-49
2021/07/30 00:40:15;;;;;;;5.33;4.20;;;;;;;29.84;48.48;101047.89;1617458;87;20975;-47
2021/07/30 00:42:50;;;;;;;5.20;4.10;;;;;;;29.85;48.32;101037.49;1605399;88;21529;-48
2021/07/30 00:45:18;;;;;;;9.08;4.42;;;;;;;29.84;48.18;101037.65;1617372;88;21002;-48
2021/07/30 00:47:45;;;;;;;4.40;3.75;;;;;;;29.82;48.59;101035.09;1617321;88;21515;-53
2021/07/30 00:50:11;;;;;;;7.47;4.72;;;;;;;29.80;49.18;101035.74;1573050;89;21005;-47
2021/07/30 00:52:39;;;;;;;6.12;3.90;;;;;;;29.78;49.73;101030.20;1641445;86;21056;-48
2021/07/30 00:55:08;;;;;;;6.53;4.95;;;;;;;29.75;49.79;101032.68;1639293;87;21511;-47
2021/07/30 00:57:34;;;;;;;5.50;4.30;;;;;;;29.73;49.75;101030.64;1637335;87;21480;-47
2021/07/30 01:00:03;;;;;;;5.45;4.80;;;;;;;29.70;49.66;101026.87;1638070;86;21484;-47
2021/07/30 01:02:29;;;;;;;6.45;4.83;;;;;;;29.69;49.89;101026.05;1636645;86;21023;-53
2021/07/30 01:04:56;;;;;;;5.42;4.85;;;;;;;29.69;49.89;101026.05;1639062;87;21047;-50
2021/07/30 01:07:22;;;;;;;8.90;5.05;;;;;;;29.69;49.79;101029.22;1638307;86;21008;-48
2021/07/30 01:09:49;;;;;;;7.05;4.97;;;;;;;29.69;49.73;101029.22;1637070;86;21492;-50
2021/07/30 01:12:16;;;;;;;5.70;4.58;;;;;;;29.68;49.63;101028.86;1633764;87;21060;-47
2021/07/30 01:14:42;;;;;;;11.57;5.65;;;;;;;29.66;49.60;101024.99;1613969;88;21052;-50
2021/07/30 01:17:09;;;;;;;9.05;5.65;;;;;;;29.66;49.61;101032.19;1642325;86;21064;-49
2021/07/30 01:19:36;;;;;;;6.92;5.03;;;;;;;29.65;49.61;101031.86;1641692;86;21488;-52
2021/07/30 01:22:21;;;;;;;7.15;5.28;;;;;;;29.64;49.72;101029.66;1633017;87;21020;-50
2021/07/30 01:24:49;;;;;;;6.85;4.95;;;;;;;29.63;49.79;101033.84;1589989;89;21025;-48
2021/07/30 01:27:16;;;;;;;6.50;5.25;;;;;;;29.63;49.83;101033.84;1589960;89;21055;-48
2021/07/30 01:29:43;;;;;;;6.33;4.97;;;;;;;29.62;49.93;101036.16;1589973;89;21025;-49
2021/07/30 01:32:09;;;;;;;6.50;4.92;;;;;;;29.60;49.99;101036.80;1589387;89;21074;-52
2021/07/30 01:34:36;;;;;;;7.72;4.95;;;;;;;29.61;50.11;101034.48;1589934;89;21017;-50
2021/07/30 01:37:03;;;;;;;5.65;4.35;;;;;;;29.59;50.18;101031.11;1589842;89;21053;-47
2021/07/30 01:39:29;;;;;;;4.42;3.83;;;;;;;29.53;49.79;101037.07;1589485;89;21069;-50
2021/07/30 01:41:56;;;;;;;6.58;4.20;;;;;;;29.46;49.43;101034.62;1587513;89;21040;-50
2021/07/30 01:44:22;;;;;;;5.42;4.33;;;;;;;29.42;49.31;101030.06;1589146;89;21061;-50
2021/07/30 01:46:49;;;;;;;9.28;4.12;;;;;;;29.40;49.40;101035.20;1591860;89;21470;-48
2021/07/30 01:49:17;;;;;;;6.33;4.17;;;;;;;29.35;49.38;101032.97;1592241;89;21552;-47
2021/07/30 01:51:44;;;;;;;5.00;4.00;;;;;;;29.31;49.57;101029.38;1591724;88;20961;-48
2021/07/30 01:54:14;;;;;;;6.10;3.83;;;;;;;29.27;49.59;101033.34;1594019;89;21029;-46
2021/07/30 01:56:39;;;;;;;4.53;3.90;;;;;;;29.22;49.79;101031.61;1639561;86;21063;-48
2021/07/30 01:59:05;;;;;;;4.50;3.85;;;;;;;29.16;49.81;101034.88;1641410;87;21390;-52
2021/07/30 02:01:32;;;;;;;5.10;4.30;;;;;;;29.11;50.13;101039.78;1640217;87;20979;-46
2021/07/30 02:04:01;;;;;;;5.05;4.08;;;;;;;29.06;50.44;101034.03;1630124;87;21012;-49
2021/07/30 02:06:28;;;;;;;7.37;4.30;;;;;;;29.02;50.64;101030.77;1626756;87;21027;-49
2021/07/30 02:08:54;;;;;;;7.80;4.47;;;;;;;28.98;50.95;101036.07;1637245;86;21027;-47
2021/07/30 02:11:21;;;;;;;5.55;4.40;;;;;;;28.97;51.43;101031.72;1639362;87;21441;-46
2021/07/30 02:16:33;;;;;;;8.28;3.92;;;;;;;28.92;51.82;101028.12;1639731;87;21564;-48
2021/07/30 02:19:00;;;;;;;6.47;4.65;;;;;;;28.90;51.82;101030.11;1637975;86;21000;-49
2021/07/30 02:21:26;;;;;;;8.90;5.10;;;;;;;28.89;51.89;101031.08;1638723;87;21020;-47
2021/07/30 02:23:53;;;;;;;5.90;4.33;;;;;;;28.88;51.81;101038.78;1638017;87;21043;-48
2021/07/30 02:26:20;;;;;;;8.05;4.28;;;;;;;28.87;51.73;101041.09;1641613;86;21007;-50
2021/07/30 02:28:46;;;;;;;13.98;4.20;;;;;;;28.86;51.51;101037.23;1643071;87;20996;-47
2021/07/30 02:31:13;;;;;;;4.83;4.00;;;;;;;28.85;51.52;101037.71;1641453;87;20988;-49
2021/07/30 02:33:40;;;;;;;4.30;3.90;;;;;;;28.84;51.60;101033.36;1637980;86;21020;-50
2021/07/30 02:36:07;;;;;;;4.58;3.98;;;;;;;28.83;51.69;101041.03;1639586;86;21522;-47
2021/07/30 02:38:34;;;;;;;4.83;3.62;;;;;;;28.80;51.65;101034.64;1642929;87;21055;-47
2021/07/30 02:41:01;;;;;;;5.22;3.80;;;;;;;28.79;51.67;101046.84;1641581;87;20992;-47
2021/07/30 02:43:28;;;;;;;7.10;4.45;;;;;;;28.75;51.64;101045.41;1640395;86;21047;-48
2021/07/30 02:45:56;;;;;;;5.25;3.60;;;;;;;28.72;51.83;101053.25;1640539;87;20976;-47
2021/07/30 02:48:23;;;;;;;12.37;4.33;;;;;;;28.70;52.03;101055.23;1638530;87;21075;-48
2021/07/30 02:50:51;;;;;;;5.80;4.28;;;;;;;28.68;52.03;101053.19;1636055;87;21087;-48
2021/07/30 02:53:17;;;;;;;4.97;3.67;;;;;;;28.69;51.97;101060.70;1638130;86;21216;-47
2021/07/30 02:55:46;;;;;;;6.37;3.83;;;;;;;28.67;51.80;101058.17;1638763;86;20984;-46
2021/07/30 02:58:16;;;;;;;9.60;5.40;;;;;;;28.66;51.71;101061.86;1640903;86;21024;-48
2021/07/30 03:00:42;;;;;;;6.53;4.70;;;;;;;28.65;51.51;101060.16;1641230;86;21068;-48
2021/07/30 03:03:09;;;;;;;8.88;4.37;;;;;;;28.63;51.70;101058.59;1635810;87;21035;-47
2021/07/30 03:05:36;;;;;;;8.10;4.72;;;;;;;28.62;51.79;101064.95;1638796;87;21067;-48
2021/07/30 03:08:03;;;;;;;8.65;5.05;;;;;;;28.59;51.39;101063.40;1626937;87;21508;-48
2021/07/30 03:10:29;;;;;;;10.80;5.22;;;;;;;28.56;51.40;101070.39;1639862;86;21477;-49
2021/07/30 03:12:56;;;;;;;9.33;4.42;;;;;;;28.54;51.18;101065.60;1642204;87;21024;-47
2021/07/30 03:15:22;;;;;;;7.15;4.90;;;;;;;28.52;51.22;101069.44;1640165;87;21031;-48
2021/07/30 03:17:51;;;;;;;7.03;4.47;;;;;;;28.48;51.38;101068.84;1638845;86;21511;-49
2021/07/30 03:20:17;;;;;;;7.28;4.70;;;;;;;28.42;51.46;101073.42;1641615;86;21023;-47
2021/07/30 03:22:44;;;;;;;15.25;5.25;;;;;;;28.39;51.49;101068.85;1641800;86;20993;-48
2021/07/30 03:25:12;;;;;;;7.22;4.95;;;;;;;28.35;51.98;101070.97;1639947;86;21023;-46
2021/07/30 03:27:40;;;;;;;7.97;4.97;;;;;;;28.33;52.23;101072.94;1638033;86;20981;-47
2021/07/30 03:30:08;;;;;;;8.90;4.40;;;;;;;28.31;52.66;101076.25;1637639;86;21019;-48
2021/07/30 03:32:34;;;;;;;7.80;4.40;;;;;;;28.30;52.79;101080.38;1638946;86;20988;-51
2021/07/30 03:35:01;;;;;;;9.58;4.60;;;;;;;28.27;53.05;101073.50;1640265;86;21011;-47
2021/07/30 03:37:27;;;;;;;9.58;4.60;;;;;;;28.25;52.80;101070.11;1639594;87;21019;-47
2021/07/30 03:39:54;;;;;;;8.68;4.42;;;;;;;28.22;52.69;101074.88;1642493;86;21040;-51
2021/07/30 03:42:22;;;;;;;7.70;4.55;;;;;;;28.18;52.73;101079.19;1640533;87;20976;-52
2021/07/30 03:44:50;;;;;;;8.65;4.62;;;;;;;28.19;52.72;101073.34;1639462;87;21031;-52
2021/07/30 03:47:17;;;;;;;5.65;4.75;;;;;;;28.25;52.72;101071.94;1640214;87;21052;-55
2021/07/30 03:49:43;;;;;;;9.05;5.12;;;;;;;28.32;52.79;101075.73;1639559;87;20996;-46
2021/07/30 03:52:10;;;;;;;5.97;4.45;;;;;;;28.38;53.03;101082.72;1640730;86;21012;-49
2021/07/30 03:54:37;;;;;;;6.40;4.70;;;;;;;28.46;53.00;101081.52;1640267;87;21476;-49
2021/07/30 03:57:05;;;;;;;11.45;4.05;;;;;;;28.59;52.80;101085.30;1640401;87;21000;-46
2021/07/30 03:59:31;;;;;;;7.58;4.40;;;;;;;28.72;52.34;101090.75;1638294;87;21069;-47
2021/07/30 04:01:58;;;;;;;9.60;4.28;;;;;;;28.83;52.40;101095.94;1637267;86;21048;-48
2021/07/30 04:04:24;;;;;;;7.08;4.22;;;;;;;28.91;51.85;101098.75;1640622;86;21067;-48
2021/07/30 04:06:51;;;;;;;5.80;4.62;;;;;;;28.92;51.60;101095.09;1639176;87;21048;-47
2021/07/30 04:09:17;;;;;;;7.40;4.67;;;;;;;28.91;51.59;101096.07;1640154;87;21020;-47
2021/07/30 04:11:45;;;;;;;24.98;5.60;;;;;;;28.88;51.70;101099.05;1636749;87;21504;-46
2021/07/30 04:14:11;;;;;;;19.15;5.78;;;;;;;28.83;51.82;101101.30;1635929;86;20981;-48
2021/07/30 04:16:38;;;;;;;7.45;5.05;;;;;;;28.79;52.27;101102.56;1639079;86;21004;-48
2021/07/30 04:19:08;;;;;;;47.45;7.60;;;;;;;28.75;52.55;101098.48;1637282;87;21003;-49
2021/07/30 04:21:36;;;;;;;8.13;4.58;;;;;;;28.71;52.88;101101.58;1639813;86;21040;-48
2021/07/30 04:24:04;;;;;;;9.63;4.85;;;;;;;28.67;52.93;101102.36;1622281;87;20989;-48
2021/07/30 04:26:31;;;;;;;8.48;4.40;;;;;;;28.65;52.97;101103.48;1641724;86;21011;-50
2021/07/30 04:28:57;;;;;;;10.88;4.85;;;;;;;28.61;52.89;101109.62;1641136;87;21016;-48
2021/07/30 04:31:24;;;;;;;6.08;4.70;;;;;;;28.59;52.91;101103.56;1640689;87;20999;-47
2021/07/30 04:33:52;;;;;;;7.90;4.53;;;;;;;28.57;52.80;101109.55;1627584;87;21491;-48
2021/07/30 04:36:19;;;;;;;7.03;5.28;;;;;;;28.56;52.72;101111.03;1640326;86;21511;-50
2021/07/30 04:38:46;;;;;;;10.93;5.10;;;;;;;28.54;52.66;101103.09;1640451;87;21032;-48
2021/07/30 04:41:12;;;;;;;6.33;4.47;;;;;;;28.51;52.54;101107.40;1631704;87;21043;-48
2021/07/30 04:43:39;;;;;;;8.85;4.70;;;;;;;28.49;52.70;101108.03;1640848;87;21059;-50
2021/07/30 04:46:14;;;;;;;6.08;4.67;;;;;;;28.47;52.64;101106.47;1638870;86;21004;-46
2021/07/30 04:48:43;;;;;;;7.20;4.92;;;;;;;28.46;52.86;101113.65;1633181;87;21484;-49
2021/07/30 04:51:10;;;;;;;5.90;4.42;;;;;;;28.46;52.96;101112.31;1638601;87;21008;-46
2021/07/30 04:53:37;;;;;;;5.17;4.67;;;;;;;28.45;52.53;101118.66;1637337;86;20993;-49
2021/07/30 04:56:04;;;;;;;6.42;4.37;;;;;;;28.44;52.73;101126.33;1638204;87;21011;-46
2021/07/30 04:58:31;;;;;;;6.08;5.00;;;;;;;28.42;53.01;101117.59;1638176;87;21052;-48
2021/07/30 05:00:57;;;;;;;11.12;5.28;;;;;;;28.41;52.98;101119.08;1642263;86;21495;-47
2021/07/30 05:03:25;;;;;;;7.78;4.33;;;;;;;28.41;52.88;101121.27;1639972;87;21004;-46
2021/07/30 05:05:51;;;;;;;10.38;4.78;;;;;;;28.40;52.84;101121.41;1638001;86;21086;-49
2021/07/30 05:08:18;;;;;;;8.50;4.75;;;;;;;28.39;52.85;101121.90;1639118;86;21063;-50
2021/07/30 05:10:50;;;;;;;9.48;5.17;;;;;;;28.40;52.98;101127.59;1637865;87;21047;-50
2021/07/30 05:13:16;;;;;;;7.25;4.58;;;;;;;28.40;53.01;101124.91;1649114;86;21048;-50
2021/07/30 05:15:43;;;;;;;10.05;5.25;;;;;;;28.40;53.08;101127.59;1642327;87;21000;-48
2021/07/30 05:18:10;;;;;;;6.62;4.67;;;;;;;28.41;53.48;101123.95;1640675;86;21016;-50
2021/07/30 05:20:41;;;;;;;7.83;5.30;;;;;;;28.41;53.38;101127.11;1640415;87;21493;-48
2021/07/30 05:23:08;;;;;;;10.32;5.17;;;;;;;28.42;53.38;101122.94;1636636;87;21024;-49
2021/07/30 05:25:35;;;;;;;8.43;5.87;;;;;;;28.41;53.45;101123.95;1642263;86;21480;-47
2021/07/30 05:28:03;;;;;;;7.92;5.95;;;;;;;28.40;52.91;101124.91;1639789;87;21016;-48
2021/07/30 05:30:31;;;;;;;9.18;5.58;;;;;;;28.42;52.97;101136.33;1635596;87;20984;-48
2021/07/30 05:32:57;;;;;;;11.75;5.25;;;;;;;28.44;53.14;101130.34;1653822;86;20980;-50
2021/07/30 05:35:24;;;;;;;8.65;5.30;;;;;;;28.47;53.19;101126.06;1652935;86;21022;-47
2021/07/30 05:37:50;;;;;;;9.18;5.75;;;;;;;28.54;53.08;101125.84;1652814;86;21642;-49
2021/07/30 05:40:17;;;;;;;5.70;5.20;;;;;;;28.58;52.97;101130.48;1652216;87;21045;-48
2021/07/30 05:42:44;;;;;;;8.98;5.97;;;;;;;28.63;53.33;101131.75;1651361;86;21024;-47
2021/07/30 05:45:12;;;;;;;10.00;5.65;;;;;;;28.73;52.98;101129.92;1651545;86;21011;-48
2021/07/30 05:47:39;;;;;;;8.98;5.80;;;;;;;28.85;52.83;101135.48;1653191;86;21004;-48
2021/07/30 05:50:06;;;;;;;7.87;5.65;;;;;;;28.97;52.88;101134.34;1653803;86;21051;-48
2021/07/30 05:52:35;;;;;;;7.87;5.85;;;;;;;29.08;52.63;101136.55;1627808;87;21015;-48
2021/07/30 05:55:01;;;;;;;8.70;6.10;;;;;;;29.18;52.56;101134.22;1652183;86;21082;-48
2021/07/30 06:01:43;;;;;;;10.40;5.90;;;;;;;29.12;53.26;101132.59;1804798;79;26080;-49
2021/07/30 06:04:10;;;;;;;11.65;6.83;;;;;;;29.52;52.01;101135.92;1766902;79;21508;-49
2021/07/30 06:06:36;;;;;;;17.25;6.65;;;;;;;29.64;51.51;101136.09;1757167;80;21007;-48
2021/07/30 06:09:04;;;;;;;9.70;6.35;;;;;;;29.69;51.51;101138.70;1742475;80;21543;-49
2021/07/30 06:11:30;;;;;;;13.98;6.90;;;;;;;29.77;51.58;101139.33;1737074;80;20986;-49
2021/07/30 06:13:57;;;;;;;10.80;7.67;;;;;;;29.82;51.38;101138.37;1738964;80;21458;-50
2021/07/30 06:16:23;;;;;;;8.78;6.70;;;;;;;29.85;50.98;101140.78;1745387;80;21044;-49
2021/07/30 06:18:50;;;;;;;8.05;5.90;;;;;;;29.88;51.01;101143.18;1755054;80;21025;-49
2021/07/30 06:21:20;;;;;;;8.03;5.95;;;;;;;29.88;51.08;101140.50;1758396;80;21576;-49
2021/07/30 06:23:47;;;;;;;9.05;6.60;;;;;;;29.89;51.22;101140.83;1758447;80;21077;-49
2021/07/30 06:26:14;;;;;;;7.95;6.53;;;;;;;29.89;51.23;101139.48;1748471;80;21482;-48
2021/07/30 06:28:41;;;;;;;7.58;6.28;;;;;;;29.90;50.98;101143.88;1752846;80;21323;-49
2021/07/30 06:31:08;;;;;;;10.45;6.78;;;;;;;29.91;51.21;101148.23;1753864;80;21011;-48
2021/07/30 06:33:35;;;;;;;10.03;6.37;;;;;;;29.94;51.06;101145.77;1770386;80;21021;-50
2021/07/30 06:36:04;;;;;;;10.93;7.08;;;;;;;29.96;50.65;101151.83;1745515;80;21030;-50
2021/07/30 06:38:31;;;;;;;17.17;7.80;;;;;;;29.97;50.69;101150.33;1755477;80;21002;-50
2021/07/30 06:40:57;;;;;;;17.35;6.05;;;;;;;29.98;50.80;101151.18;1768853;80;21017;-50
2021/07/30 06:43:24;;;;;;;9.75;6.42;;;;;;;30.00;50.75;101152.73;1754300;80;21021;-50
2021/07/30 06:45:51;;;;;;;9.73;6.25;;;;;;;30.02;50.50;101152.08;1749009;80;21521;-50
2021/07/30 06:48:17;;;;;;;7.85;6.03;;;;;;;30.04;50.35;101152.78;1747236;80;21031;-49
2021/07/30 06:50:45;;;;;;;7.55;6.60;;;;;;;30.07;50.56;101153.80;1749844;81;21082;-48
2021/07/30 06:53:11;;;;;;;12.55;6.58;;;;;;;30.10;50.59;101149.98;1751608;81;21470;-48
2021/07/30 06:55:39;;;;;;;17.75;6.12;;;;;;;30.11;50.20;101147.14;1759841;81;21011;-49
2021/07/30 06:58:05;;;;;;;12.10;6.65;;;;;;;30.11;50.30;101144.46;1748171;80;21054;-49
2021/07/30 07:00:32;;;;;;;7.03;6.12;;;;;;;30.10;50.19;101148.16;1774518;80;21018;-48
2021/07/30 07:02:59;;;;;;;7.47;5.80;;;;;;;30.12;50.50;101147.51;1737575;80;21004;-49
2021/07/30 07:05:26;;;;;;;8.70;6.03;;;;;;;30.14;50.25;101144.17;1754039;80;21526;-48
2021/07/30 07:07:53;;;;;;;6.70;5.67;;;;;;;30.15;49.88;101143.16;1760846;80;21081;-49
2021/07/30 07:10:20;;;;;;;9.65;5.78;;;;;;;30.18;49.98;101145.56;1755130;80;21017;-48
2021/07/30 07:12:47;;;;;;;12.20;6.60;;;;;;;30.23;50.27;101143.26;1758475;80;21463;-49
2021/07/30 07:15:13;;;;;;;8.75;6.15;;;;;;;30.26;50.01;101145.66;1750404;80;20991;-48
2021/07/30 07:17:40;;;;;;;9.33;6.62;;;;;;;30.30;49.86;101151.59;1766336;80;20982;-49
2021/07/30 07:20:09;;;;;;;7.72;6.95;;;;;;;30.33;49.90;101149.48;1764439;80;21117;-48
2021/07/30 07:22:36;;;;;;;14.47;6.65;;;;;;;30.40;49.49;101147.86;1745502;80;21475;-51
2021/07/30 07:25:03;;;;;;;9.58;5.95;;;;;;;30.48;49.44;101151.13;1750861;80;21033;-48
2021/07/30 07:27:30;;;;;;;9.73;6.30;;;;;;;30.56;48.87;101150.39;1753493;80;20963;-50
2021/07/30 07:29:57;;;;;;;14.30;6.42;;;;;;;30.62;48.65;101148.43;1755086;80;21043;-50
2021/07/30 07:32:24;;;;;;;7.95;6.30;;;;;;;30.66;48.73;101155.19;1735149;81;21062;-49
2021/07/30 07:34:51;;;;;;;8.85;7.05;;;;;;;30.68;47.93;101154.53;1754933;80;21470;-49
2021/07/30 07:37:18;;;;;;;8.15;6.60;;;;;;;30.70;48.12;101153.88;1747956;80;21077;-48
2021/07/30 07:39:45;;;;;;;8.40;6.70;;;;;;;30.74;47.99;101152.58;1736622;80;20975;-50
2021/07/30 07:42:11;;;;;;;9.68;6.80;;;;;;;30.78;47.84;101157.98;1742940;80;21545;-50
2021/07/30 07:44:38;;;;;;;6.67;5.95;;;;;;;30.81;47.87;101156.35;1711552;82;20983;-49
2021/07/30 07:47:05;;;;;;;6.60;5.90;;;;;;;30.85;47.85;101155.08;1723549;82;21117;-48
2021/07/30 07:49:32;;;;;;;7.28;5.80;;;;;;;30.88;47.59;101157.44;1740352;81;21027;-49
2021/07/30 07:51:58;;;;;;;9.23;7.40;;;;;;;30.91;47.42;101163.87;1752693;80;21000;-50
2021/07/30 07:54:25;;;;;;;8.38;6.22;;;;;;;30.93;47.25;101161.38;1762307;80;21012;-48
2021/07/30 07:56:54;;;;;;;9.48;6.60;;;;;;;30.98;47.06;101160.89;1741813;80;21541;-48
2021/07/30 07:59:21;;;;;;;7.17;6.47;;;;;;;31.01;46.84;101161.45;1754929;80;21031;-48
2021/07/30 08:01:48;;;;;;;7.47;6.37;;;;;;;31.04;46.59;101160.27;1744486;80;21002;-49
2021/07/30 08:04:14;;;;;;;8.98;6.10;;;;;;;31.08;46.40;101151.74;1746300;81;21042;-48
2021/07/30 08:06:42;;;;;;;6.42;5.83;;;;;;;31.13;46.27;101157.52;1758489;80;21084;-48
2021/07/30 08:09:09;;;;;;;10.95;6.28;;;;;;;31.17;46.97;101160.72;1762948;80;21030;-48
2021/07/30 08:11:38;;;;;;;7.65;6.10;;;;;;;31.20;46.94;101153.18;1760629;80;21535;-49
2021/07/30 08:14:07;;;;;;;8.50;6.72;;;;;;;31.25;46.74;101160.78;1759560;80;21496;-49
2021/07/30 08:16:35;;;;;;;11.78;7.10;;;;;;;31.27;46.81;101154.75;1761250;80;21059;-48
2021/07/30 08:19:04;;;;;;;8.38;6.37;;;;;;;31.30;46.92;101158.48;1759144;80;21018;-49
2021/07/30 08:21:33;;;;;;;7.25;6.10;;;;;;;31.33;46.81;101150.09;1750232;81;21310;-49
2021/07/30 08:23:59;;;;;;;10.80;7.33;;;;;;;31.35;46.99;101153.46;1755328;80;21197;-49
2021/07/30 08:26:26;;;;;;;10.10;6.97;;;;;;;31.37;46.35;101150.11;1768932;80;21010;-48
2021/07/30 08:28:53;;;;;;;7.30;6.60;;;;;;;31.41;46.67;101147.48;1750284;80;21054;-49
2021/07/30 08:31:25;;;;;;;7.53;6.75;;;;;;;31.46;46.87;101149.70;1743996;80;21112;-48
2021/07/30 08:33:52;;;;;;;11.63;7.47;;;;;;;31.50;46.65;101147.89;1690991;83;21473;-48
2021/07/30 08:36:21;;;;;;;9.90;7.12;;;;;;;31.55;47.09;101140.17;1684456;84;21053;-49
2021/07/30 08:38:48;;;;;;;14.40;7.60;;;;;;;31.62;46.86;101146.63;1640147;85;21663;-49
2021/07/30 08:41:22;;;;;;;13.18;7.08;;;;;;;31.66;46.58;101146.64;1658558;85;21031;-49
2021/07/30 08:43:53;;;;;;;9.93;8.23;;;;;;;31.70;46.25;101139.94;1650228;85;21044;-48
2021/07/30 08:46:26;;;;;;;8.98;6.90;;;;;;;31.73;46.43;101140.98;1684575;83;21030;-49
2021/07/30 08:48:54;;;;;;;16.85;7.70;;;;;;;31.79;46.17;101143.02;1692533;83;21007;-49
2021/07/30 08:51:22;;;;;;;8.35;7.35;;;;;;;31.83;46.08;101137.66;1682307;83;21508;-49
2021/07/30 08:53:49;;;;;;;8.68;7.78;;;;;;;31.87;46.07;101144.91;1699501;83;21075;-49
2021/07/30 08:56:17;;;;;;;8.50;7.10;;;;;;;31.90;45.89;101140.55;1668944;84;21090;-48
2021/07/30 08:58:44;;;;;;;8.03;7.22;;;;;;;31.94;45.72;101144.12;1627920;85;21509;-49
2021/07/30 09:01:11;;;;;;;8.55;7.60;;;;;;;31.98;45.76;101136.06;1631727;86;21089;-49
2021/07/30 09:03:44;;;;;;;9.55;8.03;;;;;;;32.00;45.67;101136.77;1645026;85;21124;-50
2021/07/30 09:06:15;;;;;;;8.35;7.50;;;;;;;32.03;45.95;101133.73;1653694;85;21012;-49
2021/07/30 09:08:58;;;;;;;24.32;8.45;;;;;;;32.04;45.99;101138.13;1668179;84;21004;-50
2021/07/30 09:11:30;;;;;;;8.15;7.20;;;;;;;32.07;46.11;101133.75;1662474;85;21054;-50
2021/07/30 09:13:58;;;;;;;8.48;7.53;;;;;;;32.12;45.97;101133.77;1654688;84;21013;-50
2021/07/30 09:16:26;;;;;;;8.88;7.30;;;;;;;32.16;45.88;101132.44;1645310;85;21063;-49
2021/07/30 09:18:53;;;;;;;9.38;7.40;;;;;;;32.21;46.04;101132.80;1654258;84;21051;-49
2021/07/30 09:21:28;;;;;;;10.25;7.72;;;;;;;32.25;45.90;101128.77;1615624;87;21100;-49
2021/07/30 09:24:04;;;;;;;9.00;6.72;;;;;;;32.30;45.89;101126.41;1519237;93;21109;-48
2021/07/30 09:26:42;;;;;;;8.30;7.40;;;;;;;32.36;45.64;101128.45;1560553;90;21064;-48
2021/07/30 09:29:22;;;;;;;8.83;8.03;;;;;;;32.41;45.49;101126.12;1549859;90;21095;-49
2021/07/30 09:31:52;;;;;;;11.80;8.73;;;;;;;32.44;45.35;101121.23;1489939;94;21178;-49
2021/07/30 09:34:31;;;;;;;9.35;8.35;;;;;;;32.49;45.28;101120.78;1505744;93;21109;-50
2021/07/30 09:37:09;;;;;;;8.40;7.15;;;;;;;32.55;45.18;101120.11;1510104;92;21632;-48
2021/07/30 09:39:42;;;;;;;9.78;6.70;;;;;;;32.59;44.87;101123.66;1470036;95;22193;-50
2021/07/30 09:42:11;;;;;;;10.63;7.45;;;;;;;32.62;44.74;101118.45;1483903;94;21128;-49
2021/07/30 09:44:59;;;;;;;8.38;7.53;;;;;;;32.66;44.88;101127.89;1475880;95;21766;-49
2021/07/30 09:47:33;;;;;;;7.37;6.50;;;;;;;32.69;44.78;101124.84;1525791;93;21565;-48
2021/07/30 09:50:07;;;;;;;7.42;6.60;;;;;;;32.73;44.66;101124.34;1510346;93;21690;-49
2021/07/30 09:52:38;;;;;;;10.00;7.50;;;;;;;32.78;44.58;101123.85;1511472;93;21054;-48
2021/07/30 09:55:09;;;;;;;11.70;7.45;;;;;;;32.82;44.66;101118.46;1498490;95;21077;-48
2021/07/30 09:57:42;;;;;;;10.35;6.92;;;;;;;32.85;44.48;101119.48;1501341;94;21098;-49
2021/07/30 10:00:13;;;;;;;11.30;6.53;;;;;;;32.90;44.50;101117.11;1488298;94;22428;-48
2021/07/30 10:02:43;;;;;;;8.60;6.35;;;;;;;32.96;44.16;101121.83;1508189;92;21089;-49
2021/07/30 10:05:10;;;;;;;8.00;6.60;;;;;;;33.00;43.74;101113.77;1531017;92;21115;-48
2021/07/30 10:07:39;;;;;;;12.23;6.85;;;;;;;33.07;43.41;101112.09;1481889;94;21088;-48
2021/07/30 10:10:16;;;;;;;8.98;6.72;;;;;;;33.12;43.44;101108.36;1510353;94;21113;-49
2021/07/30 10:12:56;;;;;;;10.85;6.85;;;;;;;33.13;43.16;101107.38;1478942;95;21069;-49
2021/07/30 10:15:23;;;;;;;6.78;6.17;;;;;;;33.17;43.88;101103.81;1476425;95;21236;-49
2021/07/30 10:17:51;;;;;;;9.30;5.92;;;;;;;33.21;43.78;101097.06;1442964;96;21155;-49
2021/07/30 10:20:20;;;;;;;8.50;5.87;;;;;;;33.25;43.59;101104.66;1466679;97;21059;-49
2021/07/30 10:23:08;;;;;;;8.18;6.12;;;;;;;33.30;43.67;101100.10;1466534;97;21151;-49
2021/07/30 10:25:37;;;;;;;7.95;5.53;;;;;;;33.34;43.21;101096.05;1459720;96;21089;-49
2021/07/30 10:28:07;;;;;;;8.10;5.87;;;;;;;33.40;43.21;101102.95;1459180;96;21124;-50
2021/07/30 10:30:58;;;;;;;6.40;5.70;;;;;;;33.44;42.62;101092.14;1516442;92;21068;-48
2021/07/30 10:33:40;;;;;;;7.10;6.08;;;;;;;33.47;42.35;101093.12;1557533;90;21091;-49
2021/07/30 10:36:32;;;;;;;10.98;6.03;;;;;;;33.50;42.35;101086.09;1551722;90;21145;-48
2021/07/30 10:39:06;;;;;;;;;;;;;;;33.53;42.50;101092.47;1553008;90;21176;-48
2021/07/30 10:41:33;;;;;;;5.78;5.20;;;;;;;33.54;42.57;101083.38;1558123;90;20123;-51
2021/07/30 10:44:05;;;;;;;12.13;5.45;;;;;;;33.54;42.38;101087.42;1538045;91;21821;-50
2021/07/30 10:46:32;;;;;;;6.53;5.00;;;;;;;33.54;42.43;101086.58;1554813;90;21080;-48
2021/07/30 10:48:59;;;;;;;7.47;5.30;;;;;;;33.55;42.30;101089.62;1556025;90;21611;-49
2021/07/30 10:51:29;;;;;;;5.70;5.08;;;;;;;33.54;42.12;101084.72;1568835;90;21652;-50
2021/07/30 10:54:00;;;;;;;6.10;5.03;;;;;;;33.55;42.23;101091.79;1589076;88;21105;-50
2021/07/30 10:56:33;;;;;;;;;;;;;;;33.57;41.44;101078.97;1565018;90;21108;-50
2021/07/30 10:59:04;;;;;;;5.45;4.95;;;;;;;33.59;41.37;101079.62;1572237;89;20149;-50
2021/07/30 11:01:40;;;;;;;5.65;5.15;;;;;;;33.61;41.06;101074.08;1605101;86;21045;-50
2021/07/30 11:04:07;;;;;;;75.67;8.90;;;;;;;33.63;41.22;101062.07;1624049;86;21030;-50
2021/07/30 11:06:45;;;;;;;9.18;4.90;;;;;;;33.69;40.99;101058.36;1630041;86;21006;-49
2021/07/30 11:09:16;;;;;;;6.50;5.08;;;;;;;33.72;41.28;101059.38;1620122;86;21030;-49
2021/07/30 11:12:00;;;;;;;6.43;4.93;;;;;;;33.75;41.17;101050.91;1660674;80;21101;-51
2021/07/30 11:14:30;;;;;;;10.03;5.35;;;;;;;33.80;41.63;101052.05;1728936;81;21558;-50
2021/07/30 11:16:58;;;;;;;7.28;5.78;;;;;;;33.83;41.14;101048.16;1771007;80;21073;-50
2021/07/30 11:19:33;;;;;;;5.75;5.20;;;;;;;33.87;41.32;101044.09;1746343;80;21498;-49
2021/07/30 11:22:02;;;;;;;6.25;5.60;;;;;;;33.88;41.26;101043.09;1677640;83;21085;-48
2021/07/30 11:24:28;;;;;;;16.62;6.03;;;;;;;33.90;40.79;101046.45;1685199;83;21062;-50
2021/07/30 11:26:55;;;;;;;7.08;5.67;;;;;;;33.92;41.11;101043.06;1675006;83;21148;-51
2021/07/30 11:29:23;;;;;;;9.88;5.42;;;;;;;33.94;40.77;101039.18;1608644;87;21143;-49
2021/07/30 11:31:58;;;;;;;14.35;6.85;;;;;;;33.96;40.78;101041.19;1608026;87;21047;-49
2021/07/30 11:34:34;;;;;;;6.15;5.55;;;;;;;33.99;41.09;101039.97;1647790;86;21011;-49
2021/07/30 11:37:04;;;;;;;6.00;5.40;;;;;;;34.01;41.09;101042.02;1643877;86;21080;-48